sensor_id;sensor_type;location;lat;lon;timestamp;P1;durP1;ratioP1;P2;durP2;ratioP2
10731;SDS011;5417;42.686;23.244;2022-10-16T00:00:30;8.53;;;7.53;;
10731;SDS011;5417;42.686;23.244;2022-10-16T00:02:57;8.40;;;7.70;;
10731;SDS011;5417;42.686;23.244;2022-10-16T00:05:24;8.40;;;7.83;;
10731;SDS011;5417;42.686;23.244;2022-10-16T00:07:52;9.07;;;7.30;;
10731;SDS011;5417;42.686;23.244;2022-10-16T00:10:19;8.50;;;7.90;;
10731;SDS011;5417;42.686;23.244;2022-10-16T00:12:46;8.67;;;8.07;;
10731;SDS011;5417;42.686;23.244;2022-10-16T00:15:13;8.43;;;7.77;;
10731;SDS011;5417;42.686;23.244;2022-10-16T00:17:40;8.80;;;8.07;;
10731;SDS011;5417;42.686;23.244;2022-10-16T00:20:07;7.50;;;7.00;;
10731;SDS011;5417;42.686;23.244;2022-10-16T00:22:34;8.03;;;7.40;;
10731;SDS011;5417;42.686;23.244;2022-10-16T00:25:03;7.77;;;7.10;;
10731;SDS011;5417;42.686;23.244;2022-10-16T00:27:30;8.83;;;8.00;;
10731;SDS011;5417;42.686;23.244;2022-10-16T00:29:57;8.67;;;7.80;;
10731;SDS011;5417;42.686;23.244;2022-10-16T00:32:24;8.40;;;7.70;;
10731;SDS011;5417;42.686;23.244;2022-10-16T00:34:50;12.50;;;9.40;;
10731;SDS011;5417;42.686;23.244;2022-10-16T00:37:19;11.60;;;10.50;;
10731;SDS011;5417;42.686;23.244;2022-10-16T00:39:47;10.80;;;9.77;;
10731;SDS011;5417;42.686;23.244;2022-10-16T00:42:16;10.30;;;9.40;;
10731;SDS011;5417;42.686;23.244;2022-10-16T00:44:45;9.30;;;8.50;;
10731;SDS011;5417;42.686;23.244;2022-10-16T00:47:19;9.43;;;8.47;;
10731;SDS011;5417;42.686;23.244;2022-10-16T00:49:49;8.53;;;7.77;;
10731;SDS011;5417;42.686;23.244;2022-10-16T00:52:17;8.80;;;8.00;;
10731;SDS011;5417;42.686;23.244;2022-10-16T00:54:45;8.63;;;7.97;;
10731;SDS011;5417;42.686;23.244;2022-10-16T00:57:13;8.93;;;8.13;;
10731;SDS011;5417;42.686;23.244;2022-10-16T00:59:41;8.83;;;7.97;;
10731;SDS011;5417;42.686;23.244;2022-10-16T01:02:10;8.33;;;7.67;;
10731;SDS011;5417;42.686;23.244;2022-10-16T01:04:39;7.97;;;7.27;;
10731;SDS011;5417;42.686;23.244;2022-10-16T01:07:10;8.53;;;7.73;;
10731;SDS011;5417;42.686;23.244;2022-10-16T01:09:47;8.43;;;7.53;;
10731;SDS011;5417;42.686;23.244;2022-10-16T01:12:23;8.40;;;7.70;;
10731;SDS011;5417;42.686;23.244;2022-10-16T01:14:59;7.03;;;6.53;;
10731;SDS011;5417;42.686;23.244;2022-10-16T01:17:36;7.80;;;7.20;;
10731;SDS011;5417;42.686;23.244;2022-10-16T01:20:10;8.00;;;7.27;;
10731;SDS011;5417;42.686;23.244;2022-10-16T01:22:43;8.10;;;7.40;;
10731;SDS011;5417;42.686;23.244;2022-10-16T01:25:22;7.80;;;7.10;;
10731;SDS011;5417;42.686;23.244;2022-10-16T01:27:57;7.67;;;6.97;;
10731;SDS011;5417;42.686;23.244;2022-10-16T01:30:27;7.53;;;6.83;;
10731;SDS011;5417;42.686;23.244;2022-10-16T01:32:59;7.80;;;7.17;;
10731;SDS011;5417;42.686;23.244;2022-10-16T01:35:32;7.33;;;6.83;;
10731;SDS011;5417;42.686;23.244;2022-10-16T01:38:04;7.57;;;6.67;;
10731;SDS011;5417;42.686;23.244;2022-10-16T01:40:34;7.10;;;6.50;;
10731;SDS011;5417;42.686;23.244;2022-10-16T01:43:06;7.60;;;7.00;;
10731;SDS011;5417;42.686;23.244;2022-10-16T01:45:37;8.37;;;7.57;;
10731;SDS011;5417;42.686;23.244;2022-10-16T01:48:07;8.43;;;7.53;;
10731;SDS011;5417;42.686;23.244;2022-10-16T01:50:37;7.17;;;6.60;;
10731;SDS011;5417;42.686;23.244;2022-10-16T01:53:06;7.30;;;6.70;;
10731;SDS011;5417;42.686;23.244;2022-10-16T01:55:36;8.13;;;7.30;;
10731;SDS011;5417;42.686;23.244;2022-10-16T01:58:08;7.90;;;7.20;;
10731;SDS011;5417;42.686;23.244;2022-10-16T02:00:36;8.50;;;7.80;;
10731;SDS011;5417;42.686;23.244;2022-10-16T02:03:06;8.63;;;7.07;;
10731;SDS011;5417;42.686;23.244;2022-10-16T02:05:37;8.27;;;7.57;;
10731;SDS011;5417;42.686;23.244;2022-10-16T02:08:08;8.33;;;7.63;;
10731;SDS011;5417;42.686;23.244;2022-10-16T02:10:36;8.10;;;7.50;;
10731;SDS011;5417;42.686;23.244;2022-10-16T02:13:05;8.23;;;7.17;;
10731;SDS011;5417;42.686;23.244;2022-10-16T02:15:35;7.90;;;7.20;;
10731;SDS011;5417;42.686;23.244;2022-10-16T02:20:31;8.90;;;8.10;;
10731;SDS011;5417;42.686;23.244;2022-10-16T02:23:02;8.17;;;7.43;;
10731;SDS011;5417;42.686;23.244;2022-10-16T02:25:30;8.50;;;7.80;;
10731;SDS011;5417;42.686;23.244;2022-10-16T02:28:03;8.83;;;8.03;;
10731;SDS011;5417;42.686;23.244;2022-10-16T02:30:38;9.17;;;8.27;;
10731;SDS011;5417;42.686;23.244;2022-10-16T02:33:09;8.60;;;7.90;;
10731;SDS011;5417;42.686;23.244;2022-10-16T02:35:39;8.83;;;8.03;;
10731;SDS011;5417;42.686;23.244;2022-10-16T02:38:08;8.93;;;8.03;;
10731;SDS011;5417;42.686;23.244;2022-10-16T02:40:36;8.10;;;7.50;;
10731;SDS011;5417;42.686;23.244;2022-10-16T02:43:04;9.13;;;8.23;;
10731;SDS011;5417;42.686;23.244;2022-10-16T02:45:32;9.00;;;8.20;;
10731;SDS011;5417;42.686;23.244;2022-10-16T02:47:59;9.13;;;8.27;;
10731;SDS011;5417;42.686;23.244;2022-10-16T02:50:26;10.53;;;7.77;;
10731;SDS011;5417;42.686;23.244;2022-10-16T02:52:53;9.10;;;8.30;;
10731;SDS011;5417;42.686;23.244;2022-10-16T02:55:20;9.10;;;8.40;;
10731;SDS011;5417;42.686;23.244;2022-10-16T02:57:47;9.63;;;8.63;;
10731;SDS011;5417;42.686;23.244;2022-10-16T03:00:14;8.63;;;7.80;;
10731;SDS011;5417;42.686;23.244;2022-10-16T03:02:43;8.60;;;7.70;;
10731;SDS011;5417;42.686;23.244;2022-10-16T03:05:10;9.23;;;8.43;;
10731;SDS011;5417;42.686;23.244;2022-10-16T03:07:37;8.20;;;7.50;;
10731;SDS011;5417;42.686;23.244;2022-10-16T03:10:04;8.77;;;8.00;;
10731;SDS011;5417;42.686;23.244;2022-10-16T03:12:32;8.63;;;7.80;;
10731;SDS011;5417;42.686;23.244;2022-10-16T03:14:58;8.27;;;7.50;;
10731;SDS011;5417;42.686;23.244;2022-10-16T03:17:25;8.57;;;7.70;;
10731;SDS011;5417;42.686;23.244;2022-10-16T03:19:54;8.67;;;7.87;;
10731;SDS011;5417;42.686;23.244;2022-10-16T03:22:20;8.60;;;7.80;;
10731;SDS011;5417;42.686;23.244;2022-10-16T03:24:47;8.07;;;7.30;;
10731;SDS011;5417;42.686;23.244;2022-10-16T03:27:14;9.23;;;7.00;;
10731;SDS011;5417;42.686;23.244;2022-10-16T03:29:41;7.90;;;7.20;;
10731;SDS011;5417;42.686;23.244;2022-10-16T03:32:08;43.53;;;32.50;;
10731;SDS011;5417;42.686;23.244;2022-10-16T03:34:35;73.10;;;49.37;;
10731;SDS011;5417;42.686;23.244;2022-10-16T03:37:03;9.27;;;8.37;;
10731;SDS011;5417;42.686;23.244;2022-10-16T03:39:30;7.40;;;6.90;;
10731;SDS011;5417;42.686;23.244;2022-10-16T03:41:57;7.40;;;6.70;;
10731;SDS011;5417;42.686;23.244;2022-10-16T03:44:24;7.90;;;7.07;;
10731;SDS011;5417;42.686;23.244;2022-10-16T03:46:51;7.57;;;6.87;;
10731;SDS011;5417;42.686;23.244;2022-10-16T03:49:17;8.47;;;7.23;;
10731;SDS011;5417;42.686;23.244;2022-10-16T03:51:44;8.03;;;7.27;;
10731;SDS011;5417;42.686;23.244;2022-10-16T03:54:13;7.97;;;7.17;;
10731;SDS011;5417;42.686;23.244;2022-10-16T03:56:39;7.67;;;6.93;;
10731;SDS011;5417;42.686;23.244;2022-10-16T03:59:06;8.20;;;7.20;;
10731;SDS011;5417;42.686;23.244;2022-10-16T04:01:33;7.20;;;6.50;;
10731;SDS011;5417;42.686;23.244;2022-10-16T04:04:00;7.33;;;6.73;;
10731;SDS011;5417;42.686;23.244;2022-10-16T04:06:27;7.47;;;6.80;;
10731;SDS011;5417;42.686;23.244;2022-10-16T04:08:54;7.77;;;7.03;;
10731;SDS011;5417;42.686;23.244;2022-10-16T04:11:22;10.27;;;7.77;;
10731;SDS011;5417;42.686;23.244;2022-10-16T04:13:49;7.60;;;6.93;;
10731;SDS011;5417;42.686;23.244;2022-10-16T04:16:16;8.17;;;7.20;;
10731;SDS011;5417;42.686;23.244;2022-10-16T04:18:43;7.80;;;7.10;;
10731;SDS011;5417;42.686;23.244;2022-10-16T04:21:09;10.00;;;9.00;;
10731;SDS011;5417;42.686;23.244;2022-10-16T04:23:36;7.50;;;6.90;;
10731;SDS011;5417;42.686;23.244;2022-10-16T04:26:03;7.93;;;7.13;;
10731;SDS011;5417;42.686;23.244;2022-10-16T04:28:32;7.60;;;6.80;;
10731;SDS011;5417;42.686;23.244;2022-10-16T04:30:58;6.87;;;6.27;;
10731;SDS011;5417;42.686;23.244;2022-10-16T04:33:25;8.37;;;7.50;;
10731;SDS011;5417;42.686;23.244;2022-10-16T04:35:58;7.00;;;6.50;;
10731;SDS011;5417;42.686;23.244;2022-10-16T04:38:26;30.80;;;26.10;;
10731;SDS011;5417;42.686;23.244;2022-10-16T04:40:53;12.30;;;10.00;;
10731;SDS011;5417;42.686;23.244;2022-10-16T04:43:20;8.80;;;7.90;;
10731;SDS011;5417;42.686;23.244;2022-10-16T04:45:49;8.07;;;7.03;;
10731;SDS011;5417;42.686;23.244;2022-10-16T04:48:16;9.33;;;7.77;;
10731;SDS011;5417;42.686;23.244;2022-10-16T04:50:43;7.40;;;6.80;;
10731;SDS011;5417;42.686;23.244;2022-10-16T04:53:10;7.80;;;7.20;;
10731;SDS011;5417;42.686;23.244;2022-10-16T04:55:37;8.43;;;7.03;;
10731;SDS011;5417;42.686;23.244;2022-10-16T04:58:04;9.30;;;7.73;;
10731;SDS011;5417;42.686;23.244;2022-10-16T05:00:31;8.37;;;7.57;;
10731;SDS011;5417;42.686;23.244;2022-10-16T05:02:59;7.50;;;6.90;;
10731;SDS011;5417;42.686;23.244;2022-10-16T05:05:26;7.40;;;6.80;;
10731;SDS011;5417;42.686;23.244;2022-10-16T05:07:53;7.30;;;6.70;;
10731;SDS011;5417;42.686;23.244;2022-10-16T05:10:20;9.73;;;6.90;;
10731;SDS011;5417;42.686;23.244;2022-10-16T05:12:47;7.63;;;7.03;;
10731;SDS011;5417;42.686;23.244;2022-10-16T05:15:14;13.17;;;7.93;;
10731;SDS011;5417;42.686;23.244;2022-10-16T05:17:41;7.40;;;6.80;;
10731;SDS011;5417;42.686;23.244;2022-10-16T05:20:10;9.40;;;8.30;;
10731;SDS011;5417;42.686;23.244;2022-10-16T05:22:37;9.60;;;8.67;;
10731;SDS011;5417;42.686;23.244;2022-10-16T05:25:04;9.57;;;8.67;;
10731;SDS011;5417;42.686;23.244;2022-10-16T05:27:31;7.67;;;7.07;;
10731;SDS011;5417;42.686;23.244;2022-10-16T05:29:58;7.87;;;7.17;;
10731;SDS011;5417;42.686;23.244;2022-10-16T05:32:25;8.13;;;7.40;;
10731;SDS011;5417;42.686;23.244;2022-10-16T05:34:52;7.40;;;6.90;;
10731;SDS011;5417;42.686;23.244;2022-10-16T05:37:20;6.90;;;6.30;;
10731;SDS011;5417;42.686;23.244;2022-10-16T05:39:47;7.47;;;6.87;;
10731;SDS011;5417;42.686;23.244;2022-10-16T05:42:14;7.80;;;7.10;;
10731;SDS011;5417;42.686;23.244;2022-10-16T05:44:40;7.73;;;6.97;;
10731;SDS011;5417;42.686;23.244;2022-10-16T05:47:07;7.17;;;6.67;;
10731;SDS011;5417;42.686;23.244;2022-10-16T05:49:35;7.67;;;7.07;;
10731;SDS011;5417;42.686;23.244;2022-10-16T05:52:02;8.37;;;7.03;;
10731;SDS011;5417;42.686;23.244;2022-10-16T05:54:31;7.70;;;7.00;;
10731;SDS011;5417;42.686;23.244;2022-10-16T05:56:58;7.90;;;7.30;;
10731;SDS011;5417;42.686;23.244;2022-10-16T05:59:24;8.57;;;7.80;;
10731;SDS011;5417;42.686;23.244;2022-10-16T06:01:51;8.27;;;7.57;;
10731;SDS011;5417;42.686;23.244;2022-10-16T06:04:18;9.27;;;8.40;;
10731;SDS011;5417;42.686;23.244;2022-10-16T06:06:45;8.50;;;7.67;;
10731;SDS011;5417;42.686;23.244;2022-10-16T06:09:12;9.90;;;8.90;;
10731;SDS011;5417;42.686;23.244;2022-10-16T06:11:40;9.27;;;8.20;;
10731;SDS011;5417;42.686;23.244;2022-10-16T06:14:08;8.17;;;7.40;;
10731;SDS011;5417;42.686;23.244;2022-10-16T06:16:36;8.17;;;7.47;;
10731;SDS011;5417;42.686;23.244;2022-10-16T06:19:03;9.90;;;8.90;;
10731;SDS011;5417;42.686;23.244;2022-10-16T06:21:33;8.87;;;8.07;;
10731;SDS011;5417;42.686;23.244;2022-10-16T06:24:00;9.57;;;8.63;;
10731;SDS011;5417;42.686;23.244;2022-10-16T06:26:27;10.10;;;9.40;;
10731;SDS011;5417;42.686;23.244;2022-10-16T06:28:57;9.80;;;9.00;;
10731;SDS011;5417;42.686;23.244;2022-10-16T06:31:25;12.60;;;10.90;;
10731;SDS011;5417;42.686;23.244;2022-10-16T06:33:55;13.00;;;11.70;;
10731;SDS011;5417;42.686;23.244;2022-10-16T06:36:23;13.47;;;11.80;;
10731;SDS011;5417;42.686;23.244;2022-10-16T06:38:50;13.87;;;12.57;;
10731;SDS011;5417;42.686;23.244;2022-10-16T06:41:19;12.77;;;11.57;;
10731;SDS011;5417;42.686;23.244;2022-10-16T06:43:46;15.00;;;13.40;;
10731;SDS011;5417;42.686;23.244;2022-10-16T06:46:16;13.63;;;12.43;;
10731;SDS011;5417;42.686;23.244;2022-10-16T06:48:45;12.50;;;11.30;;
10731;SDS011;5417;42.686;23.244;2022-10-16T06:51:13;16.40;;;14.90;;
10731;SDS011;5417;42.686;23.244;2022-10-16T06:53:41;16.17;;;14.53;;
10731;SDS011;5417;42.686;23.244;2022-10-16T06:56:10;12.77;;;11.43;;
10731;SDS011;5417;42.686;23.244;2022-10-16T06:58:38;12.23;;;11.07;;
10731;SDS011;5417;42.686;23.244;2022-10-16T07:01:06;12.87;;;11.20;;
10731;SDS011;5417;42.686;23.244;2022-10-16T07:03:35;12.43;;;11.30;;
10731;SDS011;5417;42.686;23.244;2022-10-16T07:06:03;12.13;;;10.90;;
10731;SDS011;5417;42.686;23.244;2022-10-16T07:08:31;11.50;;;10.40;;
10731;SDS011;5417;42.686;23.244;2022-10-16T07:10:59;11.40;;;10.40;;
10731;SDS011;5417;42.686;23.244;2022-10-16T07:13:27;13.13;;;11.80;;
10731;SDS011;5417;42.686;23.244;2022-10-16T07:15:54;13.97;;;12.10;;
10731;SDS011;5417;42.686;23.244;2022-10-16T07:18:21;29.63;;;26.63;;
10731;SDS011;5417;42.686;23.244;2022-10-16T07:20:52;16.63;;;14.97;;
10731;SDS011;5417;42.686;23.244;2022-10-16T07:23:19;17.70;;;16.00;;
10731;SDS011;5417;42.686;23.244;2022-10-16T07:25:52;20.57;;;18.20;;
10731;SDS011;5417;42.686;23.244;2022-10-16T07:28:20;19.07;;;17.23;;
10731;SDS011;5417;42.686;23.244;2022-10-16T07:30:47;21.83;;;18.80;;
10731;SDS011;5417;42.686;23.244;2022-10-16T07:33:14;25.00;;;22.63;;
10731;SDS011;5417;42.686;23.244;2022-10-16T07:35:47;23.43;;;19.73;;
10731;SDS011;5417;42.686;23.244;2022-10-16T07:38:15;18.50;;;16.90;;
10731;SDS011;5417;42.686;23.244;2022-10-16T07:40:42;14.47;;;13.00;;
10731;SDS011;5417;42.686;23.244;2022-10-16T07:43:09;13.60;;;12.53;;
10731;SDS011;5417;42.686;23.244;2022-10-16T07:45:36;14.93;;;13.50;;
10731;SDS011;5417;42.686;23.244;2022-10-16T07:48:03;12.83;;;11.73;;
10731;SDS011;5417;42.686;23.244;2022-10-16T07:50:30;12.03;;;10.83;;
10731;SDS011;5417;42.686;23.244;2022-10-16T07:52:56;14.57;;;11.77;;
10731;SDS011;5417;42.686;23.244;2022-10-16T07:55:25;12.57;;;11.30;;
10731;SDS011;5417;42.686;23.244;2022-10-16T07:57:52;11.50;;;10.47;;
10731;SDS011;5417;42.686;23.244;2022-10-16T08:00:18;10.70;;;9.90;;
10731;SDS011;5417;42.686;23.244;2022-10-16T08:02:45;12.23;;;10.53;;
10731;SDS011;5417;42.686;23.244;2022-10-16T08:05:12;13.20;;;10.00;;
10731;SDS011;5417;42.686;23.244;2022-10-16T08:07:39;11.53;;;10.47;;
10731;SDS011;5417;42.686;23.244;2022-10-16T08:10:06;12.20;;;11.07;;
10731;SDS011;5417;42.686;23.244;2022-10-16T08:12:43;11.40;;;10.40;;
10731;SDS011;5417;42.686;23.244;2022-10-16T08:15:10;14.73;;;11.30;;
10731;SDS011;5417;42.686;23.244;2022-10-16T08:17:37;14.93;;;12.00;;
10731;SDS011;5417;42.686;23.244;2022-10-16T08:20:04;12.17;;;11.07;;
10731;SDS011;5417;42.686;23.244;2022-10-16T08:22:31;12.13;;;11.03;;
10731;SDS011;5417;42.686;23.244;2022-10-16T08:24:58;11.50;;;10.30;;
10731;SDS011;5417;42.686;23.244;2022-10-16T08:27:30;11.93;;;10.77;;
10731;SDS011;5417;42.686;23.244;2022-10-16T08:29:59;14.47;;;11.43;;
10731;SDS011;5417;42.686;23.244;2022-10-16T08:32:25;10.27;;;9.47;;
10731;SDS011;5417;42.686;23.244;2022-10-16T08:34:52;10.13;;;9.10;;
10731;SDS011;5417;42.686;23.244;2022-10-16T08:37:19;9.73;;;8.90;;
10731;SDS011;5417;42.686;23.244;2022-10-16T08:39:46;10.50;;;7.97;;
10731;SDS011;5417;42.686;23.244;2022-10-16T08:42:19;7.70;;;7.07;;
10731;SDS011;5417;42.686;23.244;2022-10-16T08:48:10;8.37;;;7.70;;
10731;SDS011;5417;42.686;23.244;2022-10-16T08:50:44;9.27;;;8.10;;
10731;SDS011;5417;42.686;23.244;2022-10-16T08:53:15;8.53;;;7.73;;
10731;SDS011;5417;42.686;23.244;2022-10-16T08:55:45;7.10;;;6.57;;
10731;SDS011;5417;42.686;23.244;2022-10-16T08:58:15;8.50;;;7.47;;
10731;SDS011;5417;42.686;23.244;2022-10-16T09:00:45;6.80;;;6.23;;
10731;SDS011;5417;42.686;23.244;2022-10-16T09:03:17;6.70;;;6.20;;
10731;SDS011;5417;42.686;23.244;2022-10-16T09:06:05;6.30;;;5.73;;
10731;SDS011;5417;42.686;23.244;2022-10-16T09:08:43;6.57;;;5.93;;
10731;SDS011;5417;42.686;23.244;2022-10-16T09:11:19;6.03;;;5.63;;
10731;SDS011;5417;42.686;23.244;2022-10-16T09:14:00;5.80;;;5.27;;
10731;SDS011;5417;42.686;23.244;2022-10-16T09:16:40;6.00;;;5.50;;
10731;SDS011;5417;42.686;23.244;2022-10-16T09:19:13;5.40;;;5.07;;
10731;SDS011;5417;42.686;23.244;2022-10-16T09:21:46;5.17;;;4.87;;
10731;SDS011;5417;42.686;23.244;2022-10-16T09:24:14;5.47;;;5.07;;
10731;SDS011;5417;42.686;23.244;2022-10-16T09:26:43;5.13;;;4.70;;
10731;SDS011;5417;42.686;23.244;2022-10-16T09:29:11;5.10;;;4.80;;
10731;SDS011;5417;42.686;23.244;2022-10-16T09:31:41;5.40;;;4.90;;
10731;SDS011;5417;42.686;23.244;2022-10-16T09:34:10;6.10;;;4.87;;
10731;SDS011;5417;42.686;23.244;2022-10-16T09:36:48;4.87;;;4.37;;
10731;SDS011;5417;42.686;23.244;2022-10-16T09:39:15;4.67;;;4.27;;
10731;SDS011;5417;42.686;23.244;2022-10-16T09:41:44;5.43;;;4.83;;
10731;SDS011;5417;42.686;23.244;2022-10-16T09:44:18;7.00;;;4.77;;
10731;SDS011;5417;42.686;23.244;2022-10-16T09:47:00;6.00;;;4.47;;
10731;SDS011;5417;42.686;23.244;2022-10-16T09:49:27;4.90;;;4.50;;
10731;SDS011;5417;42.686;23.244;2022-10-16T09:52:02;4.40;;;4.00;;
10731;SDS011;5417;42.686;23.244;2022-10-16T09:54:30;4.40;;;4.10;;
10731;SDS011;5417;42.686;23.244;2022-10-16T09:57:03;6.23;;;4.50;;
10731;SDS011;5417;42.686;23.244;2022-10-16T09:59:31;4.37;;;3.97;;
10731;SDS011;5417;42.686;23.244;2022-10-16T10:02:04;5.70;;;4.07;;
10731;SDS011;5417;42.686;23.244;2022-10-16T10:04:41;3.93;;;3.73;;
10731;SDS011;5417;42.686;23.244;2022-10-16T10:07:16;4.33;;;3.60;;
10731;SDS011;5417;42.686;23.244;2022-10-16T10:09:44;5.33;;;3.97;;
10731;SDS011;5417;42.686;23.244;2022-10-16T10:12:19;4.17;;;3.90;;
10731;SDS011;5417;42.686;23.244;2022-10-16T10:14:48;3.70;;;3.47;;
10731;SDS011;5417;42.686;23.244;2022-10-16T10:17:17;4.13;;;3.80;;
10731;SDS011;5417;42.686;23.244;2022-10-16T10:19:47;4.03;;;3.27;;
10731;SDS011;5417;42.686;23.244;2022-10-16T10:22:21;7.20;;;3.70;;
10731;SDS011;5417;42.686;23.244;2022-10-16T10:24:54;3.90;;;3.70;;
10731;SDS011;5417;42.686;23.244;2022-10-16T10:27:38;4.20;;;3.90;;
10731;SDS011;5417;42.686;23.244;2022-10-16T10:30:14;3.93;;;3.63;;
10731;SDS011;5417;42.686;23.244;2022-10-16T10:32:48;4.20;;;3.83;;
10731;SDS011;5417;42.686;23.244;2022-10-16T10:35:25;4.70;;;4.37;;
10731;SDS011;5417;42.686;23.244;2022-10-16T10:38:01;4.50;;;4.17;;
10731;SDS011;5417;42.686;23.244;2022-10-16T10:40:45;3.80;;;3.53;;
10731;SDS011;5417;42.686;23.244;2022-10-16T10:43:22;4.00;;;3.77;;
10731;SDS011;5417;42.686;23.244;2022-10-16T10:46:08;4.40;;;3.90;;
10731;SDS011;5417;42.686;23.244;2022-10-16T10:48:47;4.77;;;4.37;;
10731;SDS011;5417;42.686;23.244;2022-10-16T10:51:27;4.20;;;3.90;;
10731;SDS011;5417;42.686;23.244;2022-10-16T10:54:03;4.23;;;3.83;;
10731;SDS011;5417;42.686;23.244;2022-10-16T10:56:45;5.50;;;4.40;;
10731;SDS011;5417;42.686;23.244;2022-10-16T10:59:22;3.73;;;3.53;;
10731;SDS011;5417;42.686;23.244;2022-10-16T11:02:03;4.03;;;3.73;;
10731;SDS011;5417;42.686;23.244;2022-10-16T11:04:42;3.67;;;3.47;;
10731;SDS011;5417;42.686;23.244;2022-10-16T11:07:31;4.67;;;4.27;;
10731;SDS011;5417;42.686;23.244;2022-10-16T11:10:03;5.17;;;4.33;;
10731;SDS011;5417;42.686;23.244;2022-10-16T11:12:39;3.73;;;3.43;;
10731;SDS011;5417;42.686;23.244;2022-10-16T11:15:11;4.07;;;3.77;;
10731;SDS011;5417;42.686;23.244;2022-10-16T11:17:45;4.10;;;3.80;;
10731;SDS011;5417;42.686;23.244;2022-10-16T11:20:19;3.73;;;3.53;;
10731;SDS011;5417;42.686;23.244;2022-10-16T11:22:50;4.20;;;3.87;;
10731;SDS011;5417;42.686;23.244;2022-10-16T11:25:21;3.30;;;3.10;;
10731;SDS011;5417;42.686;23.244;2022-10-16T11:27:54;3.70;;;3.50;;
10731;SDS011;5417;42.686;23.244;2022-10-16T11:30:25;3.77;;;3.47;;
10731;SDS011;5417;42.686;23.244;2022-10-16T11:33:00;4.00;;;3.73;;
10731;SDS011;5417;42.686;23.244;2022-10-16T11:35:41;3.57;;;3.27;;
10731;SDS011;5417;42.686;23.244;2022-10-16T11:38:14;4.30;;;3.90;;
10731;SDS011;5417;42.686;23.244;2022-10-16T11:40:47;4.13;;;3.87;;
10731;SDS011;5417;42.686;23.244;2022-10-16T11:43:17;5.10;;;4.73;;
10731;SDS011;5417;42.686;23.244;2022-10-16T11:45:49;5.40;;;5.00;;
10731;SDS011;5417;42.686;23.244;2022-10-16T11:48:22;4.33;;;4.03;;
10731;SDS011;5417;42.686;23.244;2022-10-16T11:50:56;4.13;;;3.83;;
10731;SDS011;5417;42.686;23.244;2022-10-16T11:53:34;3.17;;;3.03;;
10731;SDS011;5417;42.686;23.244;2022-10-16T11:56:12;3.83;;;3.53;;
10731;SDS011;5417;42.686;23.244;2022-10-16T11:58:41;3.57;;;3.30;;
10731;SDS011;5417;42.686;23.244;2022-10-16T12:01:18;4.03;;;3.73;;
10731;SDS011;5417;42.686;23.244;2022-10-16T12:03:56;3.10;;;2.73;;
10731;SDS011;5417;42.686;23.244;2022-10-16T12:06:33;3.70;;;3.40;;
10731;SDS011;5417;42.686;23.244;2022-10-16T12:09:03;3.33;;;3.13;;
10731;SDS011;5417;42.686;23.244;2022-10-16T12:11:32;3.23;;;3.03;;
10731;SDS011;5417;42.686;23.244;2022-10-16T12:14:18;3.93;;;3.57;;
10731;SDS011;5417;42.686;23.244;2022-10-16T12:17:01;3.00;;;2.90;;
10731;SDS011;5417;42.686;23.244;2022-10-16T12:19:31;2.63;;;2.43;;
10731;SDS011;5417;42.686;23.244;2022-10-16T12:22:00;2.60;;;2.50;;
10731;SDS011;5417;42.686;23.244;2022-10-16T12:24:33;2.97;;;2.77;;
10731;SDS011;5417;42.686;23.244;2022-10-16T12:27:02;3.57;;;3.30;;
10731;SDS011;5417;42.686;23.244;2022-10-16T12:29:35;3.50;;;3.20;;
10731;SDS011;5417;42.686;23.244;2022-10-16T12:32:05;3.50;;;3.30;;
10731;SDS011;5417;42.686;23.244;2022-10-16T12:34:49;3.80;;;3.40;;
10731;SDS011;5417;42.686;23.244;2022-10-16T12:37:20;3.47;;;3.27;;
10731;SDS011;5417;42.686;23.244;2022-10-16T12:39:50;3.30;;;3.10;;
10731;SDS011;5417;42.686;23.244;2022-10-16T12:42:20;3.70;;;3.40;;
10731;SDS011;5417;42.686;23.244;2022-10-16T12:44:50;4.47;;;4.07;;
10731;SDS011;5417;42.686;23.244;2022-10-16T12:47:24;3.80;;;3.50;;
10731;SDS011;5417;42.686;23.244;2022-10-16T12:50:03;3.70;;;3.40;;
10731;SDS011;5417;42.686;23.244;2022-10-16T12:52:58;3.90;;;3.40;;
10731;SDS011;5417;42.686;23.244;2022-10-16T12:55:25;4.30;;;3.90;;
10731;SDS011;5417;42.686;23.244;2022-10-16T12:58:05;5.43;;;3.60;;
10731;SDS011;5417;42.686;23.244;2022-10-16T13:00:42;3.73;;;3.40;;
10731;SDS011;5417;42.686;23.244;2022-10-16T13:03:23;3.43;;;3.23;;
10731;SDS011;5417;42.686;23.244;2022-10-16T13:06:28;3.43;;;3.13;;
10731;SDS011;5417;42.686;23.244;2022-10-16T13:09:11;4.70;;;3.40;;
10731;SDS011;5417;42.686;23.244;2022-10-16T13:11:54;5.93;;;4.03;;
10731;SDS011;5417;42.686;23.244;2022-10-16T13:14:45;4.20;;;3.30;;
10731;SDS011;5417;42.686;23.244;2022-10-16T13:17:31;3.77;;;3.47;;
10731;SDS011;5417;42.686;23.244;2022-10-16T13:20:06;4.07;;;3.83;;
10731;SDS011;5417;42.686;23.244;2022-10-16T13:22:44;5.77;;;4.10;;
10731;SDS011;5417;42.686;23.244;2022-10-16T13:25:22;3.60;;;3.40;;
10731;SDS011;5417;42.686;23.244;2022-10-16T13:27:59;3.93;;;3.40;;
10731;SDS011;5417;42.686;23.244;2022-10-16T13:30:33;3.87;;;3.53;;
10731;SDS011;5417;42.686;23.244;2022-10-16T13:33:06;3.67;;;2.93;;
10731;SDS011;5417;42.686;23.244;2022-10-16T13:35:49;3.77;;;3.47;;
10731;SDS011;5417;42.686;23.244;2022-10-16T13:38:18;3.57;;;3.27;;
10731;SDS011;5417;42.686;23.244;2022-10-16T13:40:52;4.00;;;3.67;;
10731;SDS011;5417;42.686;23.244;2022-10-16T13:43:21;3.00;;;2.80;;
10731;SDS011;5417;42.686;23.244;2022-10-16T13:45:56;4.43;;;3.00;;
10731;SDS011;5417;42.686;23.244;2022-10-16T13:48:25;3.77;;;2.93;;
10731;SDS011;5417;42.686;23.244;2022-10-16T13:50:59;4.57;;;4.30;;
10731;SDS011;5417;42.686;23.244;2022-10-16T13:53:31;2.90;;;2.70;;
10731;SDS011;5417;42.686;23.244;2022-10-16T13:56:00;3.33;;;3.03;;
10731;SDS011;5417;42.686;23.244;2022-10-16T13:58:29;3.40;;;3.20;;
10731;SDS011;5417;42.686;23.244;2022-10-16T14:00:57;4.10;;;3.73;;
10731;SDS011;5417;42.686;23.244;2022-10-16T14:03:26;3.10;;;2.90;;
10731;SDS011;5417;42.686;23.244;2022-10-16T14:05:55;3.83;;;3.43;;
10731;SDS011;5417;42.686;23.244;2022-10-16T14:08:23;4.77;;;3.57;;
10731;SDS011;5417;42.686;23.244;2022-10-16T14:10:52;4.80;;;3.70;;
10731;SDS011;5417;42.686;23.244;2022-10-16T14:13:24;3.83;;;3.53;;
10731;SDS011;5417;42.686;23.244;2022-10-16T14:15:56;3.10;;;2.80;;
10731;SDS011;5417;42.686;23.244;2022-10-16T14:18:24;2.90;;;2.70;;
10731;SDS011;5417;42.686;23.244;2022-10-16T14:20:53;3.53;;;3.30;;
10731;SDS011;5417;42.686;23.244;2022-10-16T14:23:21;3.43;;;3.20;;
10731;SDS011;5417;42.686;23.244;2022-10-16T14:25:51;3.70;;;3.40;;
10731;SDS011;5417;42.686;23.244;2022-10-16T14:28:18;3.50;;;3.20;;
10731;SDS011;5417;42.686;23.244;2022-10-16T14:30:52;3.37;;;2.77;;
10731;SDS011;5417;42.686;23.244;2022-10-16T14:33:22;2.97;;;2.77;;
10731;SDS011;5417;42.686;23.244;2022-10-16T14:35:59;3.70;;;3.40;;
10731;SDS011;5417;42.686;23.244;2022-10-16T14:38:28;3.80;;;3.50;;
10731;SDS011;5417;42.686;23.244;2022-10-16T14:40:57;6.87;;;4.13;;
10731;SDS011;5417;42.686;23.244;2022-10-16T14:43:27;4.27;;;3.63;;
10731;SDS011;5417;42.686;23.244;2022-10-16T14:46:01;4.33;;;3.33;;
10731;SDS011;5417;42.686;23.244;2022-10-16T14:48:30;3.40;;;3.10;;
10731;SDS011;5417;42.686;23.244;2022-10-16T14:50:57;3.40;;;2.83;;
10731;SDS011;5417;42.686;23.244;2022-10-16T14:53:23;2.80;;;2.63;;
10731;SDS011;5417;42.686;23.244;2022-10-16T14:55:50;2.90;;;2.70;;
10731;SDS011;5417;42.686;23.244;2022-10-16T14:58:18;3.07;;;2.90;;
10731;SDS011;5417;42.686;23.244;2022-10-16T15:00:47;4.67;;;3.37;;
10731;SDS011;5417;42.686;23.244;2022-10-16T15:03:16;4.17;;;3.70;;
10731;SDS011;5417;42.686;23.244;2022-10-16T15:05:43;4.77;;;4.37;;
10731;SDS011;5417;42.686;23.244;2022-10-16T15:08:10;5.07;;;4.57;;